createdAt,value
2017-11-01T00:00:38.823Z,12.13
2017-11-01T00:01:19.177Z,12.12
2017-11-01T00:02:00.474Z,12.11
2017-11-01T00:02:41.005Z,12.04
2017-11-01T00:03:21.750Z,12.12
2017-11-01T00:04:02.054Z,12.11
2017-11-01T00:04:43.085Z,12.12
2017-11-01T00:05:23.885Z,12
2017-11-01T00:06:05.831Z,12.12
2017-11-01T00:06:46.641Z,12.07
2017-11-01T00:07:27.058Z,12.12
2017-11-01T00:08:07.586Z,12.13
2017-11-01T00:08:48.473Z,12.13
2017-11-01T00:09:29.627Z,12.05
2017-11-01T00:10:13.794Z,12.13
2017-11-01T00:10:55.265Z,12.11
2017-11-01T00:11:38.143Z,12.16
2017-11-01T00:12:20.711Z,12.15
2017-11-01T00:13:03.543Z,12.15
2017-11-01T00:13:44.389Z,12.08
2017-11-01T00:14:25.488Z,12.25
2017-11-01T00:15:06.501Z,12.12
2017-11-01T00:15:47.099Z,12.13
2017-11-01T00:16:28.166Z,12.13
2017-11-01T00:17:08.640Z,12.12
2017-11-01T00:17:49.430Z,12.16
2017-11-01T00:18:30.141Z,12.15
2017-11-01T00:19:10.553Z,12.13
2017-11-01T00:19:51.986Z,12.16
2017-11-01T00:20:32.674Z,12.18
2017-11-01T00:21:13.376Z,12.15
2017-11-01T00:21:53.895Z,12.13
2017-11-01T00:22:34.343Z,12.15
2017-11-01T00:23:15.238Z,12.16
2017-11-01T00:25:08.101Z,12.21
2017-11-01T00:26:00.437Z,12.25
2017-11-01T00:26:53.700Z,12.19
2017-11-01T00:27:46.349Z,12.15
2017-11-01T00:28:38.551Z,12.12
2017-11-01T00:29:31.005Z,12.05
2017-11-01T00:30:24.167Z,12.13
2017-11-01T00:31:17.061Z,12.19
2017-11-01T00:32:09.652Z,12.18
2017-11-01T00:33:01.793Z,12.08
2017-11-01T00:33:54.086Z,12.18
2017-11-01T00:34:46.633Z,12.19
2017-11-01T00:35:38.816Z,12.12
2017-11-01T00:36:31.011Z,12.13
2017-11-01T00:37:23.528Z,12.22
2017-11-01T00:38:16.629Z,12.15
2017-11-01T00:39:10.874Z,12.18
2017-11-01T00:40:04.012Z,12.29
2017-11-01T00:40:57.424Z,12.26
2017-11-01T00:41:51.945Z,12.3
2017-11-01T00:42:44.442Z,12.38
2017-11-01T00:43:37.616Z,12.31
2017-11-01T00:44:31.863Z,12.3
2017-11-01T00:45:25.612Z,12.3
2017-11-01T00:46:19.545Z,12.34
2017-11-01T00:47:12.400Z,12.29
2017-11-01T00:48:04.675Z,12.4
2017-11-01T00:48:57.265Z,12.37
2017-11-01T00:49:50.574Z,12.43
2017-11-01T00:50:45.270Z,12.55
2017-11-01T00:51:38.346Z,12.58
2017-11-01T00:52:32.555Z,12.69
2017-11-01T00:53:26.066Z,12.63
2017-11-01T00:54:19.839Z,12.69
2017-11-01T00:55:12.577Z,12.59
2017-11-01T00:56:05.042Z,12.74
2017-11-01T00:56:57.799Z,12.77
2017-11-01T00:57:51.858Z,12.8
2017-11-01T00:58:45.250Z,12.7
2017-11-01T00:59:37.432Z,12.74
2017-11-01T01:00:32.607Z,12.73
2017-11-01T01:01:24.696Z,12.85
2017-11-01T01:02:16.980Z,12.8
2017-11-01T01:03:10.657Z,12.77
2017-11-01T01:04:03.943Z,12.8
2017-11-01T01:04:56.143Z,12.84
2017-11-01T01:05:49.578Z,12.79
2017-11-01T01:06:42.837Z,12.76
2017-11-01T01:09:03.308Z,12.95
2017-11-01T01:09:57.646Z,12.98
2017-11-01T01:10:50.782Z,12.95
2017-11-01T01:11:44.214Z,12.98
2017-11-01T01:12:37.476Z,12.98
2017-11-01T01:13:30.191Z,12.96
2017-11-01T01:14:23.052Z,12.96
2017-11-01T01:15:16.522Z,12.99
2017-11-01T01:16:11.319Z,12.94
2017-11-01T01:17:04.312Z,12.94
2017-11-01T01:17:56.659Z,12.92
2017-11-01T01:18:49.211Z,12.96
2017-11-01T01:19:41.935Z,12.98
2017-11-01T01:22:10.468Z,13.04
2017-11-01T01:23:04.467Z,13.12
2017-11-01T01:23:57.162Z,13.07
2017-11-01T01:24:49.370Z,13.09
2017-11-01T01:25:41.531Z,13.12
2017-11-01T01:26:35.237Z,13.12
2017-11-01T01:27:27.650Z,13.12
2017-11-01T01:28:20.073Z,13.13
2017-11-01T01:29:12.560Z,13.17
2017-11-01T01:30:05.458Z,13.21
2017-11-01T01:30:57.935Z,13.24
2017-11-01T01:31:50.890Z,13.25
2017-11-01T01:32:43.553Z,13.22
2017-11-01T01:33:35.608Z,13.29
2017-11-01T01:34:28.816Z,13.31
2017-11-01T01:35:21.490Z,13.24
2017-11-01T01:36:12.426Z,13.36
2017-11-01T01:37:04.615Z,13.41
2017-11-01T01:37:57.011Z,13.36
2017-11-01T01:38:49.659Z,13.28
2017-11-01T01:39:41.577Z,13.25
2017-11-01T01:40:34.089Z,13.24
2017-11-01T01:41:20.916Z,13.28
2017-11-01T01:42:01.269Z,13.22
2017-11-01T01:42:41.710Z,13.19
2017-11-01T01:43:22.324Z,13.07
2017-11-01T01:44:02.653Z,13.07
2017-11-01T01:44:43.121Z,13.12
2017-11-01T01:45:23.412Z,13.09
2017-11-01T01:46:03.754Z,13.14
2017-11-01T01:46:44.313Z,13.12
2017-11-01T01:47:24.720Z,13.14
2017-11-01T01:48:05.248Z,13.17
2017-11-01T01:48:45.613Z,13.19
2017-11-01T01:49:26.073Z,13.19
2017-11-01T01:50:06.626Z,13.24
2017-11-01T01:50:47.470Z,13.22
2017-11-01T01:51:28.047Z,13.24
2017-11-01T01:52:09.515Z,13.41
2017-11-01T01:52:49.935Z,13.32
2017-11-01T01:53:30.383Z,13.28
2017-11-01T01:54:10.735Z,13.28
2017-11-01T01:54:51.216Z,13.41
2017-11-01T01:55:31.705Z,13.39
2017-11-01T01:56:12.058Z,13.43
2017-11-01T01:56:55.418Z,13.35
2017-11-01T01:57:41.628Z,13.38
2017-11-01T01:58:22.168Z,13.43
2017-11-01T01:59:06.492Z,13.44
2017-11-01T01:59:47.437Z,13.41
2017-11-01T02:00:28.109Z,13.47
2017-11-01T02:01:08.675Z,13.43
2017-11-01T02:01:49.135Z,13.5
2017-11-01T02:02:29.479Z,13.55
2017-11-01T02:03:10.011Z,13.53
2017-11-01T02:03:50.512Z,13.53
2017-11-01T02:04:31.612Z,13.44
2017-11-01T02:05:11.917Z,13.5
2017-11-01T02:05:52.411Z,13.41
2017-11-01T02:06:33.838Z,13.46
2017-11-01T02:07:15.665Z,13.46
2017-11-01T02:07:56.125Z,13.55
2017-11-01T02:08:36.517Z,13.44
2017-11-01T02:09:17.014Z,13.61
2017-11-01T02:09:57.743Z,13.53
2017-11-01T02:10:38.241Z,13.68
2017-11-01T02:11:18.598Z,13.61
2017-11-01T02:11:59.210Z,13.61
2017-11-01T02:12:39.523Z,13.59
2017-11-01T02:13:20.502Z,13.54
2017-11-01T02:14:03.231Z,13.55
2017-11-01T02:14:43.736Z,13.53
2017-11-01T02:15:24.110Z,13.57
2017-11-01T02:16:04.501Z,13.53
2017-11-01T02:16:45.073Z,13.54
2017-11-01T02:17:25.516Z,13.59
2017-11-01T02:18:05.884Z,13.73
2017-11-01T02:18:46.405Z,13.8
2017-11-01T02:19:26.871Z,13.66
2017-11-01T02:20:07.164Z,13.63
2017-11-01T02:20:47.757Z,13.73
2017-11-01T02:21:28.033Z,13.71
2017-11-01T02:22:08.458Z,13.69
2017-11-01T02:22:48.741Z,13.66
2017-11-01T02:23:29.711Z,13.72
2017-11-01T02:24:10.212Z,13.69
2017-11-01T02:24:50.665Z,13.71
2017-11-01T02:25:31.251Z,13.72
2017-11-01T02:26:11.745Z,13.76
2017-11-01T02:26:52.176Z,13.72
2017-11-01T02:27:32.858Z,13.62
2017-11-01T02:28:13.274Z,13.68
2017-11-01T02:28:53.981Z,13.63
2017-11-01T02:29:34.447Z,13.75
2017-11-01T02:30:14.856Z,13.86
2017-11-01T02:30:55.306Z,13.76
2017-11-01T02:31:35.820Z,13.79
2017-11-01T02:32:16.215Z,13.63
2017-11-01T02:32:56.620Z,13.8
2017-11-01T02:33:37.063Z,13.71
2017-11-01T02:34:17.528Z,13.81
2017-11-01T02:34:57.921Z,13.8
2017-11-01T02:35:38.340Z,13.69
2017-11-01T02:36:18.744Z,13.66
2017-11-01T02:37:02.775Z,13.66
2017-11-01T02:37:43.516Z,13.76
2017-11-01T02:38:24.031Z,13.81
2017-11-01T02:39:04.405Z,13.87
2017-11-01T02:39:44.874Z,13.8
2017-11-01T02:40:25.195Z,13.88
2017-11-01T02:41:05.743Z,13.84
2017-11-01T02:41:46.152Z,13.83
2017-11-01T02:42:27.365Z,13.72
2017-11-01T02:43:07.694Z,13.81
2017-11-01T02:43:48.176Z,13.75
2017-11-01T02:44:28.622Z,13.75
2017-11-01T02:45:09.067Z,13.73
2017-11-01T02:45:49.589Z,13.83
2017-11-01T02:46:29.962Z,13.76
2017-11-01T02:47:10.644Z,13.81
2017-11-01T02:47:51.033Z,13.88
2017-11-01T02:48:32.610Z,13.86
2017-11-01T02:49:12.795Z,13.76
2017-11-01T02:49:53.349Z,13.75
2017-11-01T02:50:33.900Z,13.62
2017-11-01T02:51:14.316Z,13.66
2017-11-01T02:51:54.824Z,13.66
2017-11-01T02:52:35.175Z,13.68
2017-11-01T02:53:15.778Z,13.71
2017-11-01T02:53:56.834Z,13.59
2017-11-01T02:54:39.282Z,13.57
2017-11-01T02:55:19.795Z,13.69
2017-11-01T02:56:00.599Z,13.72
2017-11-01T02:56:41.198Z,13.71
2017-11-01T02:57:21.509Z,13.73
2017-11-01T02:58:01.937Z,13.66
2017-11-01T02:58:42.294Z,13.76
2017-11-01T02:59:22.677Z,13.73
2017-11-01T03:00:03.283Z,13.73
2017-11-01T03:00:43.737Z,13.66
2017-11-01T03:01:24.143Z,13.71
2017-11-01T03:02:04.527Z,13.69
2017-11-01T03:02:45.584Z,13.63
2017-11-01T03:04:25.696Z,13.81
2017-11-01T03:05:07.115Z,13.75
2017-11-01T03:05:47.558Z,13.81
2017-11-01T03:06:28.059Z,13.79
2017-11-01T03:07:08.337Z,13.9
2017-11-01T03:07:48.813Z,13.87
2017-11-01T03:08:29.327Z,13.86
2017-11-01T03:09:09.766Z,13.91
2017-11-01T03:09:50.229Z,13.83
2017-11-01T03:10:30.666Z,13.8
2017-11-01T03:11:11.015Z,13.81
2017-11-01T03:11:51.459Z,13.88
2017-11-01T03:12:31.850Z,13.61
2017-11-01T03:13:12.313Z,13.8
2017-11-01T03:13:52.768Z,13.76
2017-11-01T03:14:33.204Z,13.69
2017-11-01T03:15:13.696Z,13.66
2017-11-01T03:15:54.296Z,13.71
2017-11-01T03:16:34.756Z,13.68
2017-11-01T03:17:15.161Z,13.65
2017-11-01T03:17:55.646Z,13.75
2017-11-01T03:18:36.211Z,13.72
2017-11-01T03:19:16.683Z,13.73
2017-11-01T03:19:57.263Z,13.83
2017-11-01T03:20:37.705Z,13.84
2017-11-01T03:21:18.075Z,13.9
2017-11-01T03:21:58.633Z,13.91
2017-11-01T03:22:38.902Z,13.87
2017-11-01T03:23:19.422Z,13.88
2017-11-01T03:23:59.830Z,13.88
2017-11-01T03:24:40.206Z,13.98
2017-11-01T03:25:20.675Z,14.02
2017-11-01T03:26:01.001Z,13.99
2017-11-01T03:26:41.424Z,13.98
2017-11-01T03:27:21.867Z,13.94
2017-11-01T03:28:02.332Z,13.94
2017-11-01T03:28:42.769Z,14.06
2017-11-01T03:29:23.325Z,14.06
2017-11-01T03:30:03.988Z,14.05
2017-11-01T03:30:44.479Z,14.17
2017-11-01T03:31:24.954Z,14.12
2017-11-01T03:32:06.328Z,14.16
2017-11-01T03:32:46.849Z,14.12
2017-11-01T03:33:27.231Z,14.08
2017-11-01T03:34:07.808Z,14.11
2017-11-01T03:34:48.291Z,14.11
2017-11-01T03:35:28.743Z,14.12
2017-11-01T03:36:09.247Z,14.19
2017-11-01T03:36:49.778Z,14.24
2017-11-01T03:37:30.327Z,14.2
2017-11-01T03:38:10.712Z,14.12
2017-11-01T03:38:51.149Z,14.09
2017-11-01T03:39:31.603Z,14.13
2017-11-01T03:40:11.994Z,14.12
2017-11-01T03:40:52.471Z,14.11
2017-11-01T03:41:32.821Z,14.11
2017-11-01T03:42:13.258Z,14.09
2017-11-01T03:42:53.844Z,14.09
2017-11-01T03:43:34.335Z,14.12
2017-11-01T03:44:14.628Z,14.05
2017-11-01T03:44:55.096Z,14.09
2017-11-01T03:45:35.557Z,14.09
2017-11-01T03:46:15.970Z,14.02
2017-11-01T03:46:56.403Z,13.96
2017-11-01T03:47:36.877Z,13.99
2017-11-01T03:48:17.341Z,14.05
2017-11-01T03:48:57.929Z,14.11
2017-11-01T03:49:38.337Z,14.06
2017-11-01T03:50:19.389Z,13.96
2017-11-01T03:50:59.214Z,13.98
2017-11-01T03:51:39.585Z,14.06
2017-11-01T03:52:20.036Z,13.99
2017-11-01T03:53:01.029Z,14.11
2017-11-01T03:53:41.038Z,14.11
2017-11-01T03:54:21.477Z,14.11
2017-11-01T03:55:01.803Z,14.16
2017-11-01T03:55:42.318Z,14.16
2017-11-01T03:56:22.801Z,14.13
2017-11-01T03:57:03.266Z,14.12
2017-11-01T03:57:43.824Z,14.12
2017-11-01T03:58:24.219Z,14.26
2017-11-01T03:59:04.705Z,14.19
2017-11-01T03:59:45.074Z,14.16
2017-11-01T04:00:25.593Z,14.12
2017-11-01T04:01:05.829Z,14.16
2017-11-01T04:01:46.335Z,14.16
2017-11-01T04:41:18.594Z,12.95
2017-11-01T04:42:12.861Z,12.81
2017-11-01T04:43:05.114Z,12.71
2017-11-01T04:43:57.724Z,12.76
2017-11-01T04:44:50.897Z,12.71
2017-11-01T04:45:43.108Z,12.7
2017-11-01T04:46:35.641Z,12.73
2017-11-01T04:47:28.974Z,12.76
2017-11-01T04:48:22.258Z,12.63
2017-11-01T04:49:15.271Z,12.81
2017-11-01T04:50:08.902Z,12.8
2017-11-01T04:51:00.553Z,12.79
2017-11-01T04:51:53.160Z,12.79
2017-11-01T04:52:46.716Z,12.79
2017-11-01T04:53:39.562Z,12.84
2017-11-01T04:54:32.189Z,12.99
2017-11-01T04:55:24.680Z,13.12
2017-11-01T04:56:17.715Z,13.19
2017-11-01T04:57:10.500Z,13.19
2017-11-01T04:58:02.622Z,13.22
2017-11-01T04:58:54.704Z,13.22
2017-11-01T04:59:46.830Z,13.21
2017-11-01T05:00:39.839Z,13.29
2017-11-01T05:01:32.217Z,13.35
2017-11-01T05:02:25.542Z,13.35
2017-11-01T05:03:17.677Z,13.31
2017-11-01T05:04:11.007Z,13.39
2017-11-01T05:05:03.110Z,13.48
2017-11-01T05:05:56.793Z,13.48
2017-11-01T05:06:49.785Z,13.53
2017-11-01T05:07:42.651Z,13.57
2017-11-01T05:08:35.075Z,13.55
2017-11-01T05:09:27.381Z,13.48
2017-11-01T05:10:19.579Z,13.57
2017-11-01T05:11:13.101Z,13.53
2017-11-01T05:12:05.651Z,13.46
2017-11-01T05:12:57.873Z,13.54
2017-11-01T05:13:50.214Z,13.5
2017-11-01T05:14:44.289Z,13.47
2017-11-01T05:15:38.076Z,13.48
2017-11-01T05:16:30.874Z,13.48
2017-11-01T05:17:25.106Z,13.46
2017-11-01T05:18:17.757Z,13.47
2017-11-01T05:19:10.160Z,13.36
2017-11-01T05:20:02.702Z,13.35
2017-11-01T05:20:55.512Z,13.29
2017-11-01T05:21:48.054Z,13.32
2017-11-01T05:22:40.282Z,13.29
2017-11-01T05:23:32.866Z,13.24
2017-11-01T05:24:25.143Z,13.25
2017-11-01T05:25:17.700Z,13.28
2017-11-01T05:26:10.266Z,13.32
2017-11-01T05:27:03.583Z,13.43
2017-11-01T05:27:55.887Z,13.28
2017-11-01T05:28:48.115Z,13.27
2017-11-01T05:29:40.207Z,13.29
2017-11-01T05:30:32.800Z,13.36
2017-11-01T05:31:25.140Z,13.39
2017-11-01T05:32:18.149Z,13.35
2017-11-01T05:33:10.606Z,13.29
2017-11-01T05:34:03.361Z,13.31
2017-11-01T05:34:55.754Z,13.36
2017-11-01T05:35:48.916Z,13.38
2017-11-01T05:36:41.540Z,13.35
2017-11-01T05:37:35.097Z,13.32
2017-11-01T05:38:27.241Z,13.38
2017-11-01T05:39:20.792Z,13.43
2017-11-01T05:40:13.141Z,13.48
2017-11-01T05:41:06.219Z,13.46
2017-11-01T05:41:59.913Z,13.46
2017-11-01T05:42:52.411Z,13.48
2017-11-01T05:43:45.477Z,13.48
2017-11-01T05:44:38.231Z,13.5
2017-11-01T05:45:31.114Z,13.48
2017-11-01T05:46:23.199Z,13.48
2017-11-01T05:47:16.633Z,13.5
2017-11-01T05:48:09.673Z,13.35
2017-11-01T05:49:02.470Z,13.19
2017-11-01T05:49:54.651Z,13.19
2017-11-01T05:50:47.182Z,13.21
2017-11-01T05:51:39.610Z,13.19
2017-11-01T05:52:33.044Z,13.24
2017-11-01T05:53:25.981Z,13.22
2017-11-01T05:54:20.208Z,13.24
2017-11-01T05:55:13.092Z,13.28
2017-11-01T05:56:05.364Z,13.35
2017-11-01T05:56:59.394Z,13.22
2017-11-01T05:57:52.232Z,13.22
2017-11-01T05:58:44.312Z,13.28
2017-11-01T05:59:37.908Z,13.28
2017-11-01T06:00:30.149Z,13.27
2017-11-01T06:01:22.624Z,13.24
2017-11-01T06:02:16.835Z,13.29
2017-11-01T06:03:09.437Z,13.24
2017-11-01T06:04:01.608Z,13.27
2017-11-01T06:04:55.645Z,13.16
2017-11-01T06:05:48.179Z,13.27
2017-11-01T06:06:40.975Z,13.17
2017-11-01T06:07:33.805Z,13.21
2017-11-01T06:08:26.458Z,13.24
2017-11-01T06:09:19.072Z,13.29
2017-11-01T06:10:12.035Z,13.38
2017-11-01T06:11:04.414Z,13.46
2017-11-01T06:11:57.149Z,13.38
2017-11-01T06:12:49.949Z,13.29
2017-11-01T06:13:42.772Z,13.35
2017-11-01T06:14:34.781Z,13.41
2017-11-01T06:15:27.235Z,13.48
2017-11-01T06:16:19.573Z,13.54
2017-11-01T06:17:12.286Z,13.62
2017-11-01T06:18:04.663Z,13.66
2017-11-01T06:18:59.524Z,13.61
2017-11-01T06:19:52.233Z,13.72
2017-11-01T06:20:46.079Z,13.66
2017-11-01T06:21:38.978Z,13.68
2017-11-01T06:22:30.940Z,13.61
2017-11-01T06:23:23.116Z,13.61
2017-11-01T06:24:15.928Z,13.57
2017-11-01T06:25:08.965Z,13.69
2017-11-01T06:26:02.197Z,13.65
2017-11-01T06:26:54.687Z,13.68
2017-11-01T06:27:47.379Z,13.57
2017-11-01T06:28:39.066Z,13.61
2017-11-01T06:29:31.289Z,13.57
2017-11-01T06:30:23.187Z,13.61
2017-11-01T06:31:16.767Z,13.61
2017-11-01T06:32:08.271Z,13.59
2017-11-01T06:33:00.392Z,13.55
2017-11-01T06:33:53.110Z,13.46
2017-11-01T06:34:45.219Z,13.47
2017-11-01T06:35:39.100Z,13.53
2017-11-01T06:36:31.278Z,13.54
2017-11-01T06:37:24.584Z,13.62
2017-11-01T06:38:16.747Z,13.57
2017-11-01T06:39:09.452Z,13.57
2017-11-01T06:40:01.716Z,13.72
2017-11-01T06:40:53.971Z,13.55
2017-11-01T06:41:46.250Z,13.54
2017-11-01T06:42:38.174Z,13.59
2017-11-01T06:43:30.669Z,13.59
2017-11-01T06:44:22.674Z,13.71
2017-11-01T06:45:14.567Z,13.55
2017-11-01T06:46:07.699Z,13.65
2017-11-01T06:47:00.153Z,13.62
2017-11-01T06:47:52.618Z,13.66
2017-11-01T06:48:42.190Z,13.66
2017-11-01T06:49:22.598Z,13.72
2017-11-01T06:50:03.302Z,13.72
2017-11-01T06:50:43.866Z,13.63
2017-11-01T06:51:24.379Z,13.59
2017-11-01T06:52:04.685Z,13.63
2017-11-01T06:52:45.094Z,13.71
2017-11-01T06:53:25.558Z,13.75
2017-11-01T06:54:06.253Z,13.62
2017-11-01T06:54:46.529Z,13.63
2017-11-01T06:55:26.869Z,13.72
2017-11-01T06:56:07.317Z,13.73
2017-11-01T06:56:47.773Z,13.63
2017-11-01T06:57:28.283Z,13.81
2017-11-01T06:58:08.653Z,13.84
2017-11-01T06:58:49.124Z,13.79
2017-11-01T06:59:29.553Z,13.86
2017-11-01T07:00:10.139Z,13.75
2017-11-01T07:00:50.597Z,13.86
2017-11-01T07:01:30.943Z,13.86
2017-11-01T07:02:11.368Z,13.84
2017-11-01T07:02:51.736Z,13.88
2017-11-01T07:03:32.151Z,13.9
2017-11-01T07:04:12.550Z,13.84
2017-11-01T07:04:52.909Z,13.81
2017-11-01T07:05:33.351Z,13.76
2017-11-01T07:06:13.781Z,13.66
2017-11-01T07:06:54.194Z,13.72
2017-11-01T07:07:34.686Z,13.66
2017-11-01T07:08:15.213Z,13.65
2017-11-01T07:08:55.474Z,13.57
2017-11-01T07:09:36.010Z,13.61
2017-11-01T07:10:16.408Z,13.61
2017-11-01T07:10:56.703Z,13.57
2017-11-01T07:11:37.152Z,13.47
2017-11-01T07:12:17.606Z,13.55
2017-11-01T07:12:57.980Z,13.55
2017-11-01T07:13:38.464Z,13.71
2017-11-01T07:14:18.878Z,13.68
2017-11-01T07:14:59.271Z,13.68
2017-11-01T07:15:39.677Z,13.71
2017-11-01T07:16:20.143Z,13.65
2017-11-01T07:17:00.513Z,13.63
2017-11-01T07:17:40.929Z,13.69
2017-11-01T07:18:21.383Z,13.57
2017-11-01T07:19:01.758Z,13.69
2017-11-01T07:19:42.142Z,13.69
2017-11-01T07:20:22.652Z,13.68
2017-11-01T07:21:03.032Z,13.71
2017-11-01T07:21:43.516Z,13.62
2017-11-01T07:22:23.992Z,13.72
2017-11-01T07:23:04.444Z,13.63
2017-11-01T07:23:44.808Z,13.63
2017-11-01T07:24:25.228Z,13.66
2017-11-01T07:25:05.675Z,13.71
2017-11-01T07:25:46.678Z,13.75
2017-11-01T07:26:26.398Z,13.86
2017-11-01T07:27:06.811Z,13.84
2017-11-01T07:27:47.228Z,13.9
2017-11-01T07:28:27.677Z,13.87
2017-11-01T07:29:08.180Z,13.93
2017-11-01T07:29:48.564Z,13.88
2017-11-01T07:30:28.891Z,13.98
2017-11-01T07:31:09.290Z,13.98
2017-11-01T07:31:49.859Z,14.06
2017-11-01T07:32:30.420Z,13.93
2017-11-01T07:33:11.068Z,14.01
2017-11-01T07:33:51.511Z,13.98
2017-11-01T07:34:31.967Z,14.06
2017-11-01T07:35:12.320Z,14.08
2017-11-01T07:35:52.825Z,14.09
2017-11-01T07:36:33.202Z,14.21
2017-11-01T07:37:13.597Z,14.27
2017-11-01T07:37:54.010Z,14.21
2017-11-01T07:38:34.504Z,14.38
2017-11-01T07:39:15.130Z,14.39
2017-11-01T07:39:55.656Z,14.49
2017-11-01T07:40:36.121Z,14.63
2017-11-01T07:41:16.551Z,14.66
2017-11-01T07:41:56.922Z,14.86
2017-11-01T07:42:37.394Z,15.07
2017-11-01T07:43:17.739Z,15.22
2017-11-01T07:43:58.090Z,15.4
2017-11-01T07:44:38.509Z,15.55
2017-11-01T07:45:19.025Z,15.6
2017-11-01T07:45:59.399Z,15.67
2017-11-01T07:46:39.814Z,15.74
2017-11-01T07:47:20.229Z,15.85
2017-11-01T07:48:00.712Z,15.96
2017-11-01T07:48:41.258Z,16.01
2017-11-01T07:49:21.641Z,16.07
2017-11-01T07:50:02.105Z,16.22
2017-11-01T07:50:42.499Z,16.22
2017-11-01T07:51:23.092Z,16.36
2017-11-01T07:52:03.399Z,16.44
2017-11-01T07:52:43.917Z,16.44
2017-11-01T07:53:24.376Z,16.45
2017-11-01T07:54:04.781Z,16.51
2017-11-01T07:54:45.227Z,16.52
2017-11-01T07:55:25.644Z,16.48
2017-11-01T07:56:11.437Z,16.37
2017-11-01T07:56:55.601Z,16.4
2017-11-01T07:57:37.260Z,16.29
2017-11-01T07:58:17.726Z,16.3
2017-11-01T07:58:58.173Z,16.36
2017-11-01T07:59:38.667Z,16.4
2017-11-01T08:00:19.080Z,16.5
2017-11-01T08:00:59.500Z,16.52
2017-11-01T08:01:39.958Z,16.6
2017-11-01T08:02:20.486Z,16.75
2017-11-01T08:03:00.857Z,16.77
2017-11-01T08:03:41.275Z,16.84
2017-11-01T08:04:21.810Z,16.87
2017-11-01T08:05:02.306Z,16.85
2017-11-01T08:05:42.821Z,16.78
2017-11-01T08:06:23.064Z,16.84
2017-11-01T08:07:03.436Z,16.78
2017-11-01T08:07:43.934Z,16.75
2017-11-01T08:08:24.312Z,16.73
2017-11-01T08:09:05.307Z,16.63
2017-11-01T08:09:45.675Z,16.72
2017-11-01T08:10:26.848Z,16.73
2017-11-01T08:11:07.357Z,16.51
2017-11-01T08:11:47.781Z,16.48
2017-11-01T08:12:28.207Z,16.3
2017-11-01T08:13:08.614Z,16.37
2017-11-01T08:13:48.916Z,16.29
2017-11-01T08:14:29.382Z,16.47
2017-11-01T08:15:09.864Z,16.3
2017-11-01T08:17:00.119Z,16.4
2017-11-01T08:17:40.679Z,16.34
2017-11-01T08:18:20.999Z,16.47
2017-11-01T08:19:01.436Z,16.5
2017-11-01T08:19:42.116Z,16.57
2017-11-01T08:20:22.574Z,16.51
2017-11-01T08:21:03.123Z,16.55
2017-11-01T08:21:43.566Z,16.55
2017-11-01T08:22:23.997Z,16.33
2017-11-01T08:23:04.460Z,16.48
2017-11-01T08:23:44.892Z,16.45
2017-11-01T08:24:25.353Z,16.45
2017-11-01T08:25:05.877Z,16.42
2017-11-01T08:25:46.466Z,16.47
2017-11-01T08:26:26.813Z,16.45
2017-11-01T08:27:07.269Z,16.37
2017-11-01T08:27:47.682Z,16.48
2017-11-01T08:28:28.113Z,16.44
2017-11-01T08:29:08.595Z,16.33
2017-11-01T08:29:48.973Z,16.36
2017-11-01T08:30:29.409Z,16.5
2017-11-01T08:31:09.754Z,16.51
2017-11-01T08:31:50.862Z,16.5
2017-11-01T08:32:31.374Z,16.51
2017-11-01T08:33:11.862Z,16.54
2017-11-01T08:33:52.268Z,16.6
2017-11-01T08:34:32.761Z,16.63
2017-11-01T08:35:13.167Z,16.63
2017-11-01T08:35:53.611Z,16.73
2017-11-01T08:36:34.034Z,16.85
2017-11-01T08:38:16.018Z,16.9
2017-11-01T08:39:08.533Z,16.95
2017-11-01T08:40:02.662Z,16.98
2017-11-01T08:40:55.585Z,17.12
2017-11-01T08:41:49.601Z,17.27
2017-11-01T08:42:43.754Z,17.32
2017-11-01T08:43:36.546Z,17.47
2017-11-01T08:44:28.734Z,17.54
2017-11-01T08:45:21.583Z,17.51
2017-11-01T08:46:14.492Z,17.53
2017-11-01T08:47:10.146Z,17.57
2017-11-01T08:48:02.986Z,17.7
2017-11-01T08:48:56.677Z,17.94
2017-11-01T08:49:50.969Z,18.2
2017-11-01T08:50:43.414Z,18.29
2017-11-01T08:51:35.730Z,18.36
2017-11-01T08:52:28.678Z,18.56
2017-11-01T08:53:22.640Z,18.83
2017-11-01T08:54:15.683Z,18.89
2017-11-01T08:55:07.767Z,18.93
2017-11-01T08:55:59.827Z,19.06
2017-11-01T08:56:54.186Z,19.2
2017-11-01T08:57:46.562Z,19.34
2017-11-01T08:58:39.495Z,19.39
2017-11-01T08:59:32.909Z,19.53
2017-11-01T09:00:13.883Z,19.47
2017-11-01T09:00:54.409Z,19.31
2017-11-01T09:01:34.789Z,19.17
2017-11-01T09:02:15.308Z,19.13
2017-11-01T09:02:55.781Z,19.06
2017-11-01T09:03:36.229Z,19.02
2017-11-01T09:04:16.690Z,19.05
2017-11-01T09:04:57.081Z,19.12
2017-11-01T09:05:37.570Z,19.09
2017-11-01T09:06:18.034Z,19.05
2017-11-01T09:06:58.539Z,19.1
2017-11-01T09:07:39.012Z,19.2
2017-11-01T09:08:19.616Z,19.23
2017-11-01T09:08:59.983Z,19.32
2017-11-01T09:09:40.386Z,19.5
2017-11-01T09:10:20.778Z,19.6
2017-11-01T09:11:01.227Z,19.79
2017-11-01T09:11:41.610Z,19.97
2017-11-01T09:12:22.130Z,20.08
2017-11-01T09:13:02.557Z,20.3
2017-11-01T09:13:42.981Z,20.4
2017-11-01T09:14:23.478Z,20.66
2017-11-01T09:15:03.845Z,20.91
2017-11-01T09:15:44.268Z,21.08
2017-11-01T09:16:24.712Z,21.22
2017-11-01T09:17:05.077Z,21.27
2017-11-01T09:17:45.847Z,21.38
2017-11-01T09:18:26.049Z,21.43
2017-11-01T09:19:06.758Z,21.43
2017-11-01T09:19:47.115Z,21.48
2017-11-01T09:20:27.772Z,21.52
2017-11-01T09:21:09.076Z,21.59
2017-11-01T09:21:49.558Z,21.61
2017-11-01T09:22:30.056Z,21.61
2017-11-01T09:23:10.569Z,21.7
2017-11-01T09:23:51.082Z,21.91
2017-11-01T09:24:31.591Z,21.98
2017-11-01T09:25:12.062Z,22.21
2017-11-01T09:25:52.500Z,22.33
2017-11-01T09:26:32.935Z,22.45
2017-11-01T09:27:13.498Z,22.67
2017-11-01T09:27:54.034Z,22.74
2017-11-01T09:28:34.367Z,22.85
2017-11-01T09:29:14.816Z,22.94
2017-11-01T09:29:55.215Z,23.06
2017-11-01T09:30:35.905Z,23.12
2017-11-01T09:31:16.394Z,23.19
2017-11-01T09:31:56.742Z,23.16
2017-11-01T09:32:37.118Z,23.25
2017-11-01T09:33:17.683Z,23.29
2017-11-01T09:33:58.020Z,23.09
2017-11-01T09:34:38.460Z,23.06
2017-11-01T09:35:18.878Z,23.06
2017-11-01T09:35:59.275Z,23.14
2017-11-01T09:36:39.695Z,23.19
2017-11-01T09:37:20.209Z,23.22
2017-11-01T09:38:00.655Z,23.26
2017-11-01T09:38:41.373Z,23.26
2017-11-01T09:39:21.575Z,23.26
2017-11-01T09:40:02.047Z,23.34
2017-11-01T09:40:45.756Z,23.35
2017-11-01T09:41:26.192Z,23.39
2017-11-01T09:42:07.260Z,23.39
2017-11-01T09:42:47.637Z,23.32
2017-11-01T09:43:28.037Z,23.21
2017-11-01T09:44:08.879Z,23.19
2017-11-01T09:44:49.298Z,23.26
2017-11-01T09:45:29.741Z,23.22
2017-11-01T09:46:10.200Z,23.22
2017-11-01T09:48:13.930Z,23.19
2017-11-01T09:49:06.370Z,23.14
2017-11-01T09:49:59.269Z,23.15
2017-11-01T09:50:53.498Z,23.15
2017-11-01T09:51:54.703Z,23.07
2017-11-01T09:53:15.135Z,23.23
2017-11-01T09:54:08.262Z,23.41
2017-11-01T09:55:01.615Z,23.21
2017-11-01T09:55:55.357Z,23.31
2017-11-01T09:56:48.762Z,23.22
2017-11-01T09:57:41.161Z,23.09
2017-11-01T09:58:34.746Z,22.89
2017-11-01T09:59:27.786Z,22.97
2017-11-01T10:00:20.159Z,23.18
2017-11-01T10:01:12.697Z,23.42
2017-11-01T10:02:05.406Z,23.75
2017-11-01T10:02:59.860Z,23.82
2017-11-01T10:41:01.339Z,24.39
2017-11-01T10:41:55.996Z,24.3
2017-11-01T10:42:48.224Z,24.41
2017-11-01T10:43:40.805Z,24.46
2017-11-01T10:44:34.153Z,24.61
2017-11-01T10:45:28.214Z,24.55
2017-11-01T10:46:20.991Z,24.63
2017-11-01T10:47:13.869Z,24.64
2017-11-01T10:48:07.945Z,24.75
2017-11-01T10:49:00.182Z,24.82
2017-11-01T10:49:53.285Z,24.94
2017-11-01T10:50:45.649Z,25.07
2017-11-01T10:51:40.729Z,25.11
2017-11-01T10:52:33.750Z,25.19
2017-11-01T10:53:27.512Z,25.38
2017-11-01T10:54:23.709Z,25.38
2017-11-01T10:55:21.673Z,25.27
2017-11-01T10:56:14.225Z,25.31
2017-11-01T10:57:07.604Z,25.46
2017-11-01T10:58:00.377Z,25.49
2017-11-01T10:58:53.995Z,25.76
2017-11-01T10:59:46.581Z,25.82
2017-11-01T11:00:39.933Z,25.69
2017-11-01T11:01:33.141Z,25.51
2017-11-01T11:02:26.132Z,25.41
2017-11-01T11:03:20.169Z,25.53
2017-11-01T11:04:13.846Z,25.61
2017-11-01T11:05:06.107Z,25.69
2017-11-01T11:05:59.937Z,25.83
2017-11-01T11:06:53.791Z,25.94
2017-11-01T11:07:56.418Z,25.74
2017-11-01T11:08:49.573Z,25.34
2017-11-01T11:09:43.803Z,24.9
2017-11-01T11:10:36.772Z,24.7
2017-11-01T11:11:31.000Z,24.42
2017-11-01T11:12:27.154Z,24.16